Eagle River, Canada
Current Conditions -  °F | °C
As of 10:00 PM on Tuesday 25 Nov 2014 (Local Time) from CYHD Reporting Station
Light Snow Light Snow  
Wind Chill: -1°   Ceiling: 4200
Heat Index:   Visibility: 4mi
Dew Point:   Wind: 6mph
Humidity: 85%   Direction: 20°NNE
Pressure: 30.03"   Gusts: NA
Location:  49.78°N, 93.18°W
Report Text: CYHD 260400Z AUTO 02005KT 340V040 4SM -SN OVC042 M13/M15 A3003 RMK SLP209
Loading
Personal Weather Stations






























Interactive Weather Map New forecast layout! Learn more

10-Day Weather Forecast

Advertisements
Track Severe Weather on mobile